createdAt,value
2023-01-27T00:00:52.378Z,-2.24
2023-01-27T00:01:54.008Z,-2.17
2023-01-27T00:02:55.753Z,-2.08
2023-01-27T00:03:57.471Z,-2.14
2023-01-27T00:04:59.440Z,-2.12
2023-01-27T00:06:01.233Z,-2.08
2023-01-27T00:07:02.927Z,-2.13
2023-01-27T00:08:04.714Z,-2.20
2023-01-27T00:09:06.352Z,-2.14
2023-01-27T00:10:09.511Z,-2.18
2023-01-27T00:11:29.657Z,-2.17
2023-01-27T00:12:49.997Z,-2.23
2023-01-27T00:13:51.623Z,-2.22
2023-01-27T00:14:53.228Z,-2.27
2023-01-27T00:15:55.641Z,-2.22
2023-01-27T00:16:57.358Z,-2.19
2023-01-27T00:17:59.013Z,-2.20
2023-01-27T00:19:00.667Z,-2.22
2023-01-27T00:20:04.060Z,-2.26
2023-01-27T00:21:24.453Z,-2.22
2023-01-27T00:22:44.749Z,-2.30
2023-01-27T00:24:04.852Z,-2.30
2023-01-27T00:25:06.824Z,-2.24
2023-01-27T00:26:10.847Z,-2.28
2023-01-27T00:27:13.591Z,-2.30
2023-01-27T00:28:22.969Z,-2.23
2023-01-27T00:29:24.655Z,-2.28
2023-01-27T00:30:26.750Z,-2.34
2023-01-27T00:31:47.164Z,-2.23
2023-01-27T00:33:07.433Z,-2.19
2023-01-27T00:34:10.585Z,-2.20
2023-01-27T00:35:16.300Z,-2.23
2023-01-27T00:36:17.906Z,-2.12
2023-01-27T00:37:19.609Z,-2.17
2023-01-27T00:38:21.248Z,-2.09
2023-01-27T00:39:22.876Z,-2.24
2023-01-27T00:40:24.596Z,-2.20
2023-01-27T00:41:28.767Z,-2.22
2023-01-27T00:42:30.418Z,-2.20
2023-01-27T00:43:32.342Z,-2.17
2023-01-27T00:44:34.334Z,-2.25
2023-01-27T00:46:05.784Z,-2.22
2023-01-27T00:47:07.984Z,-2.24
2023-01-27T00:48:09.619Z,-2.20
2023-01-27T00:49:13.413Z,-2.18
2023-01-27T00:50:16.751Z,-2.23
2023-01-27T00:51:19.227Z,-2.31
2023-01-27T00:52:20.808Z,-2.26
2023-01-27T00:53:22.436Z,-2.33
2023-01-27T00:54:24.085Z,-2.38
2023-01-27T00:55:25.877Z,-2.30
2023-01-27T00:56:28.189Z,-2.30
2023-01-27T00:57:30.252Z,-2.28
2023-01-27T00:58:32.457Z,-2.18
2023-01-27T00:59:34.071Z,-2.18
2023-01-27T01:00:36.175Z,-2.18
2023-01-27T01:01:38.261Z,-2.18
2023-01-27T01:02:39.982Z,-2.20
2023-01-27T01:03:42.308Z,-2.09
2023-01-27T01:04:43.944Z,-2.16
2023-01-27T01:05:45.561Z,-2.16
2023-01-27T01:06:47.118Z,-2.21
2023-01-27T01:07:48.768Z,-2.28
2023-01-27T01:08:53.259Z,-2.23
2023-01-27T01:09:55.007Z,-2.22
2023-01-27T01:10:56.880Z,-2.31
2023-01-27T01:11:58.857Z,-2.35
2023-01-27T01:13:00.615Z,-2.24
2023-01-27T01:14:02.296Z,-2.01
2023-01-27T01:15:04.212Z,-2.06
2023-01-27T01:16:06.843Z,-2.10
2023-01-27T01:17:09.086Z,-2.17
2023-01-27T01:18:11.654Z,-2.19
2023-01-27T01:19:15.311Z,-2.20
2023-01-27T01:20:17.117Z,-2.17
2023-01-27T01:21:18.776Z,-2.20
2023-01-27T01:22:20.402Z,-2.27
2023-01-27T01:23:22.258Z,-2.16
2023-01-27T01:24:24.072Z,-2.09
2023-01-27T01:25:25.810Z,-2.09
2023-01-27T01:26:27.414Z,-2.10
2023-01-27T01:27:29.602Z,-2.04
2023-01-27T01:28:31.212Z,-2.09
2023-01-27T01:29:32.881Z,-2.13
2023-01-27T01:30:35.867Z,-2.16
2023-01-27T01:31:37.539Z,-2.10
2023-01-27T01:32:39.155Z,-2.04
2023-01-27T01:33:41.252Z,-2.00
2023-01-27T01:34:43.561Z,-2.16
2023-01-27T01:35:45.345Z,-2.11
2023-01-27T01:36:46.949Z,-2.16
2023-01-27T01:37:49.081Z,-2.08
2023-01-27T01:38:55.503Z,-2.15
2023-01-27T01:39:57.115Z,-2.02
2023-01-27T01:40:58.823Z,-2.04
2023-01-27T01:42:00.747Z,-2.04
2023-01-27T01:43:04.457Z,-1.98
2023-01-27T01:44:25.834Z,-1.95
2023-01-27T01:45:36.860Z,-1.88
2023-01-27T01:46:38.566Z,-1.97
2023-01-27T01:47:40.269Z,-1.95
2023-01-27T01:48:55.000Z,-2.03
2023-01-27T01:49:57.934Z,-2.02
2023-01-27T01:51:13.615Z,-1.98
2023-01-27T01:52:19.458Z,-2.02
2023-01-27T01:53:27.198Z,-2.04
2023-01-27T01:54:33.635Z,-2.06
2023-01-27T01:55:37.084Z,-2.12
2023-01-27T01:56:54.628Z,-2.02
2023-01-27T01:57:56.373Z,-1.96
2023-01-27T01:59:01.774Z,-2.03
2023-01-27T02:00:13.741Z,-2.04
2023-01-27T02:01:17.044Z,-2.03
2023-01-27T02:02:22.322Z,-1.82
2023-01-27T02:03:26.313Z,-1.93
2023-01-27T02:04:32.416Z,-2.07
2023-01-27T02:05:36.698Z,-2.01
2023-01-27T02:06:43.768Z,-1.96
2023-01-27T02:07:54.946Z,-2.02
2023-01-27T02:08:59.399Z,-2.02
2023-01-27T02:10:00.925Z,-1.90
2023-01-27T02:11:02.513Z,-1.93
2023-01-27T02:12:04.599Z,-2.05
2023-01-27T02:13:06.163Z,-1.97
2023-01-27T02:14:07.766Z,-2.02
2023-01-27T02:15:10.919Z,-2.08
2023-01-27T02:16:13.202Z,-2.15
2023-01-27T02:17:14.996Z,-2.11
2023-01-27T02:18:16.565Z,-1.93
2023-01-27T02:19:47.432Z,-2.06
2023-01-27T02:20:51.561Z,-2.05
2023-01-27T02:21:55.424Z,-2.02
2023-01-27T02:22:59.944Z,-2.07
2023-01-27T02:24:10.704Z,-2.20
2023-01-27T02:25:33.991Z,-2.20
2023-01-27T02:26:38.942Z,-2.13
2023-01-27T02:27:40.647Z,-2.15
2023-01-27T02:28:42.305Z,-2.13
2023-01-27T02:29:43.867Z,-2.15
2023-01-27T02:30:45.654Z,-2.06
2023-01-27T02:31:47.477Z,-2.11
2023-01-27T02:32:49.257Z,-2.13
2023-01-27T02:33:52.160Z,-2.09
2023-01-27T02:34:55.957Z,-1.93
2023-01-27T02:36:13.426Z,-2.12
2023-01-27T02:37:16.426Z,-1.99
2023-01-27T02:38:18.524Z,-1.99
2023-01-27T02:39:22.729Z,-2.02
2023-01-27T02:40:25.124Z,-2.03
2023-01-27T02:41:39.618Z,-2.09
2023-01-27T02:42:41.250Z,-1.96
2023-01-27T02:43:42.880Z,-2.01
2023-01-27T02:44:44.544Z,-2.05
2023-01-27T02:45:47.425Z,-2.08
2023-01-27T02:46:49.039Z,-2.22
2023-01-27T02:47:50.641Z,-2.05
2023-01-27T02:48:52.573Z,-2.03
2023-01-27T02:49:54.411Z,-2.12
2023-01-27T02:50:56.939Z,-2.11
2023-01-27T02:51:58.986Z,-2.16
2023-01-27T02:53:01.606Z,-2.09
2023-01-27T02:54:03.347Z,-2.13
2023-01-27T02:55:05.563Z,-2.18
2023-01-27T02:56:07.377Z,-2.15
2023-01-27T02:57:09.000Z,-2.14
2023-01-27T02:58:21.139Z,-2.10
2023-01-27T02:59:26.561Z,-2.09
2023-01-27T03:00:28.174Z,-2.17
2023-01-27T03:01:32.392Z,-2.14
2023-01-27T03:02:34.487Z,-2.10
2023-01-27T03:03:44.064Z,-2.11
2023-01-27T03:04:45.742Z,-2.08
2023-01-27T03:05:51.527Z,-2.04
2023-01-27T03:06:53.173Z,-2.04
2023-01-27T03:07:55.086Z,-2.08
2023-01-27T03:08:56.886Z,-2.08
2023-01-27T03:09:58.517Z,-2.17
2023-01-27T03:11:00.175Z,-2.18
2023-01-27T03:12:20.068Z,-2.26
2023-01-27T03:13:25.050Z,-2.22
2023-01-27T03:14:45.915Z,-2.17
2023-01-27T03:16:06.870Z,-2.20
2023-01-27T03:17:27.099Z,-2.19
2023-01-27T03:18:28.710Z,-2.17
2023-01-27T03:19:30.351Z,-2.07
2023-01-27T03:20:32.555Z,-2.08
2023-01-27T03:21:34.153Z,-2.19
2023-01-27T03:22:35.850Z,-2.16
2023-01-27T03:23:37.491Z,-2.05
2023-01-27T03:24:39.678Z,-2.07
2023-01-27T03:25:43.235Z,-2.15
2023-01-27T03:26:44.863Z,-2.13
2023-01-27T03:27:48.906Z,-2.14
2023-01-27T03:29:28.582Z,-2.16
2023-01-27T03:30:30.758Z,-2.17
2023-01-27T03:31:40.635Z,-2.12
2023-01-27T03:32:46.742Z,-2.08
2023-01-27T03:34:11.423Z,-2.14
2023-01-27T03:35:20.861Z,-2.14
2023-01-27T03:36:42.613Z,-2.14
2023-01-27T03:38:03.449Z,-2.21
2023-01-27T03:39:23.814Z,-2.09
2023-01-27T03:40:44.069Z,-2.19
2023-01-27T03:42:04.186Z,-2.19
2023-01-27T03:43:24.365Z,-2.16
2023-01-27T03:44:44.649Z,-2.22
2023-01-27T03:46:09.506Z,-2.19
2023-01-27T03:47:11.259Z,-2.19
2023-01-27T03:48:13.323Z,-2.23
2023-01-27T03:49:15.047Z,-2.18
2023-01-27T03:50:19.314Z,-2.14
2023-01-27T03:51:23.966Z,-2.10
2023-01-27T03:52:25.602Z,-1.99
2023-01-27T03:53:27.299Z,-1.97
2023-01-27T03:54:29.105Z,-1.98
2023-01-27T03:55:32.195Z,-2.08
2023-01-27T03:56:33.831Z,-2.10
2023-01-27T03:57:37.972Z,-2.18
2023-01-27T03:58:39.927Z,-2.22
2023-01-27T03:59:41.785Z,-2.13
2023-01-27T04:00:43.603Z,-2.12
2023-01-27T04:01:45.279Z,-2.12
2023-01-27T04:03:05.647Z,-2.09
2023-01-27T04:04:25.866Z,-2.12
2023-01-27T04:05:46.019Z,-2.00
2023-01-27T04:07:00.618Z,-2.09
2023-01-27T04:08:02.319Z,-2.15
2023-01-27T04:09:05.428Z,-2.08
2023-01-27T04:10:07.620Z,-2.18
2023-01-27T04:11:27.965Z,-2.15
2023-01-27T04:12:30.039Z,-2.13
2023-01-27T04:13:31.596Z,-2.14
2023-01-27T04:14:37.965Z,-2.18
2023-01-27T04:15:39.568Z,-2.09
2023-01-27T04:16:41.354Z,-2.13
2023-01-27T04:17:42.882Z,-2.18
2023-01-27T04:18:46.948Z,-2.19
2023-01-27T04:19:49.737Z,-2.29
2023-01-27T04:20:51.320Z,-2.17
2023-01-27T04:21:53.340Z,-2.28
2023-01-27T04:22:56.093Z,-2.24
2023-01-27T04:23:57.860Z,-2.23
2023-01-27T04:24:59.498Z,-2.16
2023-01-27T04:26:01.155Z,-2.25
2023-01-27T04:27:05.489Z,-2.27
2023-01-27T04:28:07.081Z,-2.17
2023-01-27T04:29:08.734Z,-2.11
2023-01-27T04:30:11.044Z,-2.04
2023-01-27T04:31:12.818Z,-2.01
2023-01-27T04:32:14.711Z,-2.10
2023-01-27T04:33:16.588Z,-2.05
2023-01-27T04:34:18.832Z,-2.01
2023-01-27T04:35:23.363Z,-2.00
2023-01-27T04:36:26.973Z,-2.04
2023-01-27T04:37:28.520Z,-2.09
2023-01-27T04:38:30.140Z,-1.96
2023-01-27T04:39:31.936Z,-1.74
2023-01-27T04:40:33.578Z,-1.56
2023-01-27T04:41:35.319Z,-1.72
2023-01-27T04:42:37.042Z,-1.80
2023-01-27T04:43:38.707Z,-1.96
2023-01-27T04:44:40.294Z,-1.96
2023-01-27T04:45:41.947Z,-2.01
2023-01-27T04:46:43.637Z,-1.95
2023-01-27T04:47:45.292Z,-2.02
2023-01-27T04:48:46.868Z,-1.97
2023-01-27T04:49:48.446Z,-2.14
2023-01-27T04:50:50.080Z,-2.13
2023-01-27T04:51:51.645Z,-2.07
2023-01-27T04:52:53.271Z,-2.12
2023-01-27T04:53:55.275Z,-2.21
2023-01-27T04:54:56.854Z,-2.21
2023-01-27T04:56:31.273Z,-2.17
2023-01-27T04:57:32.866Z,-2.19
2023-01-27T04:58:34.437Z,-2.21
2023-01-27T04:59:36.017Z,-2.26
2023-01-27T05:00:37.622Z,-2.21
2023-01-27T05:01:39.316Z,-2.22
2023-01-27T05:02:41.091Z,-2.21
2023-01-27T05:03:42.846Z,-2.20
2023-01-27T05:04:44.398Z,-2.19
2023-01-27T05:05:46.064Z,-2.26
2023-01-27T05:06:47.756Z,-2.29
2023-01-27T05:07:49.349Z,-2.19
2023-01-27T05:08:51.268Z,-2.24
2023-01-27T05:09:52.865Z,-2.26
2023-01-27T05:10:54.529Z,-2.26
2023-01-27T05:11:56.175Z,-2.22
2023-01-27T05:12:58.634Z,-2.26
2023-01-27T05:14:00.235Z,-2.30
2023-01-27T05:15:01.867Z,-2.29
2023-01-27T05:16:16.459Z,-2.27
2023-01-27T05:17:18.021Z,-2.25
2023-01-27T05:18:19.615Z,-2.25
2023-01-27T05:19:21.263Z,-2.26
2023-01-27T05:20:22.928Z,-2.13
2023-01-27T05:21:28.363Z,-2.15
2023-01-27T05:22:30.151Z,-2.26
2023-01-27T05:23:35.367Z,-2.27
2023-01-27T05:24:38.305Z,-2.11
2023-01-27T05:25:43.994Z,-2.07
2023-01-27T05:26:45.608Z,-2.04
2023-01-27T05:27:47.249Z,-2.02
2023-01-27T05:28:49.994Z,-2.05
2023-01-27T05:29:51.700Z,-2.11
2023-01-27T05:30:53.317Z,-2.07
2023-01-27T05:31:54.965Z,-2.16
2023-01-27T05:32:56.631Z,-2.04
2023-01-27T05:33:59.533Z,-2.06
2023-01-27T05:35:01.208Z,-1.98
2023-01-27T05:36:05.124Z,-2.11
2023-01-27T05:37:06.720Z,-2.18
2023-01-27T05:38:08.336Z,-2.14
2023-01-27T05:39:11.282Z,-2.18
2023-01-27T05:40:13.251Z,-2.22
2023-01-27T05:41:16.148Z,-2.15
2023-01-27T05:42:17.783Z,-2.13
2023-01-27T05:43:19.361Z,-2.22
2023-01-27T05:44:20.972Z,-2.16
2023-01-27T05:45:22.585Z,-2.12
2023-01-27T05:46:29.906Z,-1.91
2023-01-27T05:47:31.632Z,-1.98
2023-01-27T05:48:38.157Z,-2.09
2023-01-27T05:49:39.779Z,-2.06
2023-01-27T05:50:41.376Z,-1.99
2023-01-27T05:51:42.965Z,-2.03
2023-01-27T05:52:45.118Z,-1.99
2023-01-27T05:53:46.967Z,-2.16
2023-01-27T05:54:48.551Z,-2.12
2023-01-27T05:55:51.378Z,-2.12
2023-01-27T05:56:54.178Z,-2.02
2023-01-27T05:57:57.137Z,-2.04
2023-01-27T05:58:58.998Z,-2.04
2023-01-27T06:00:00.600Z,-2.05
2023-01-27T06:01:18.524Z,-2.07
2023-01-27T06:02:22.653Z,-2.09
2023-01-27T06:03:24.417Z,-2.06
2023-01-27T06:04:26.195Z,-2.09
2023-01-27T06:05:27.805Z,-2.14
2023-01-27T06:06:31.473Z,-2.24
2023-01-27T06:07:33.068Z,-2.26
2023-01-27T06:08:34.797Z,-2.30
2023-01-27T06:09:38.767Z,-2.32
2023-01-27T06:10:40.383Z,-2.29
2023-01-27T06:11:41.987Z,-2.20
2023-01-27T06:12:43.599Z,-2.20
2023-01-27T06:13:45.343Z,-2.13
2023-01-27T06:14:47.033Z,-2.09
2023-01-27T06:15:49.200Z,-2.12
2023-01-27T06:16:50.838Z,-2.13
2023-01-27T06:17:52.936Z,-2.12
2023-01-27T06:18:54.648Z,-2.08
2023-01-27T06:19:56.257Z,-2.10
2023-01-27T06:20:59.004Z,-2.14
2023-01-27T06:22:00.641Z,-2.14
2023-01-27T06:23:02.460Z,-2.11
2023-01-27T06:24:04.621Z,-2.09
2023-01-27T06:25:06.811Z,-2.04
2023-01-27T06:26:12.336Z,-2.15
2023-01-27T06:27:13.965Z,-2.26
2023-01-27T06:28:28.235Z,-2.11
2023-01-27T06:29:31.009Z,-2.04
2023-01-27T06:30:34.865Z,-2.06
2023-01-27T06:31:36.606Z,-2.04
2023-01-27T06:32:38.253Z,-2.14
2023-01-27T06:33:40.121Z,-2.16
2023-01-27T06:34:42.593Z,-2.17
2023-01-27T06:35:45.156Z,-2.12
2023-01-27T06:36:47.583Z,-2.10
2023-01-27T06:37:50.066Z,-1.95
2023-01-27T06:38:52.235Z,-2.05
2023-01-27T06:39:54.207Z,-2.03
2023-01-27T06:40:57.338Z,-2.02
2023-01-27T06:41:58.953Z,-2.06
2023-01-27T06:43:00.614Z,-1.95
2023-01-27T06:44:02.195Z,-1.94
2023-01-27T06:45:04.133Z,-1.86
2023-01-27T06:46:06.237Z,-1.98
2023-01-27T06:47:08.015Z,-2.09
2023-01-27T06:48:09.729Z,-2.06
2023-01-27T06:49:11.377Z,-2.07
2023-01-27T06:50:13.357Z,-2.15
2023-01-27T06:51:15.463Z,-2.06
2023-01-27T06:52:17.094Z,-1.97
2023-01-27T06:53:18.810Z,-2.02
2023-01-27T06:54:20.491Z,-2.16
2023-01-27T06:55:23.916Z,-2.24
2023-01-27T06:56:25.556Z,-2.07
2023-01-27T06:57:27.209Z,-1.91
2023-01-27T06:58:29.330Z,-1.76
2023-01-27T06:59:30.958Z,-1.93
2023-01-27T07:00:32.594Z,-2.00
2023-01-27T07:01:35.194Z,-2.07
2023-01-27T07:02:36.927Z,-2.02
2023-01-27T07:03:38.492Z,-1.93
2023-01-27T07:04:40.126Z,-1.95
2023-01-27T07:05:42.210Z,-1.92
2023-01-27T07:06:43.841Z,-1.95
2023-01-27T07:07:45.520Z,-1.83
2023-01-27T07:08:47.571Z,-1.81
2023-01-27T07:09:52.659Z,-1.73
2023-01-27T07:10:54.694Z,-1.65
2023-01-27T07:11:56.320Z,-1.66
2023-01-27T07:13:05.904Z,-1.72
2023-01-27T07:14:09.648Z,-1.73
2023-01-27T07:15:12.612Z,-1.64
2023-01-27T07:16:14.236Z,-1.53
2023-01-27T07:17:15.915Z,-1.69
2023-01-27T07:18:17.562Z,-1.79
2023-01-27T07:19:19.144Z,-1.74
2023-01-27T07:20:20.911Z,-1.67
2023-01-27T07:21:22.551Z,-1.65
2023-01-27T07:22:24.154Z,-1.74
2023-01-27T07:23:25.751Z,-1.53
2023-01-27T07:24:27.421Z,-1.49
2023-01-27T07:25:30.860Z,-1.57
2023-01-27T07:26:32.446Z,-1.50
2023-01-27T07:27:34.176Z,-1.65
2023-01-27T07:28:35.783Z,-1.75
2023-01-27T07:29:37.373Z,-1.63
2023-01-27T07:30:39.388Z,-1.75
2023-01-27T07:31:41.107Z,-1.57
2023-01-27T07:32:42.922Z,-1.62
2023-01-27T07:33:44.964Z,-1.71
2023-01-27T07:34:46.840Z,-1.66
2023-01-27T07:35:49.929Z,-1.55
2023-01-27T07:36:52.047Z,-1.52
2023-01-27T07:37:53.627Z,-1.64
2023-01-27T07:38:55.241Z,-1.65
2023-01-27T07:39:56.796Z,-1.50
2023-01-27T07:40:58.635Z,-1.67
2023-01-27T07:42:03.652Z,-1.58
2023-01-27T07:43:05.316Z,-1.67
2023-01-27T07:44:10.337Z,-1.63
2023-01-27T07:45:12.154Z,-1.59
2023-01-27T07:46:13.841Z,-1.51
2023-01-27T07:47:15.413Z,-1.49
2023-01-27T07:48:17.070Z,-1.56
2023-01-27T07:49:18.645Z,-1.59
2023-01-27T07:50:21.451Z,-1.51
2023-01-27T07:51:23.119Z,-1.39
2023-01-27T07:52:24.779Z,-1.37
2023-01-27T07:53:26.438Z,-1.28
2023-01-27T07:54:28.038Z,-1.28
2023-01-27T07:55:30.226Z,-1.40
2023-01-27T07:56:32.339Z,-1.30
2023-01-27T07:57:34.088Z,-1.25
2023-01-27T07:58:35.722Z,-1.42
2023-01-27T07:59:37.389Z,-1.19
2023-01-27T08:00:39.006Z,-1.19
2023-01-27T08:01:41.832Z,-1.33
2023-01-27T08:02:43.510Z,-1.20
2023-01-27T08:03:45.127Z,-1.10
2023-01-27T08:04:53.322Z,-1.01
2023-01-27T08:05:55.425Z,-1.05
2023-01-27T08:06:57.025Z,-1.04
2023-01-27T08:07:59.264Z,-1.21
2023-01-27T08:09:00.857Z,-1.25
2023-01-27T08:10:02.499Z,-1.40
2023-01-27T08:11:08.552Z,-1.41
2023-01-27T08:12:10.231Z,-1.35
2023-01-27T08:13:11.887Z,-1.36
2023-01-27T08:14:13.524Z,-1.53
2023-01-27T08:15:18.659Z,-1.56
2023-01-27T08:16:20.625Z,-1.54
2023-01-27T08:17:22.292Z,-1.46
2023-01-27T08:18:25.150Z,-1.47
2023-01-27T08:19:26.758Z,-1.54
2023-01-27T08:20:28.391Z,-1.59
2023-01-27T08:21:32.869Z,-1.53
2023-01-27T08:22:34.359Z,-1.49
2023-01-27T08:23:36.006Z,-1.44
2023-01-27T08:24:37.544Z,-1.49
2023-01-27T08:25:39.320Z,-1.44
2023-01-27T08:26:40.888Z,-1.34
2023-01-27T08:27:42.513Z,-1.57
2023-01-27T08:28:44.394Z,-1.53
2023-01-27T08:29:46.127Z,-1.52
2023-01-27T08:30:48.355Z,-1.46
2023-01-27T08:31:50.241Z,-1.49
2023-01-27T08:32:51.849Z,-1.41
2023-01-27T08:33:54.016Z,-1.32
2023-01-27T08:34:55.692Z,-1.34
2023-01-27T08:35:57.338Z,-1.36
2023-01-27T08:36:59.140Z,-1.47
2023-01-27T08:38:00.726Z,-1.64
2023-01-27T08:39:02.347Z,-1.58
2023-01-27T08:40:38.190Z,-1.56
2023-01-27T08:41:39.791Z,-1.64
2023-01-27T08:42:41.320Z,-1.60
2023-01-27T08:43:43.462Z,-1.55
2023-01-27T08:44:45.025Z,-1.49
2023-01-27T08:45:47.180Z,-1.51
2023-01-27T08:46:48.695Z,-1.55
2023-01-27T08:47:50.182Z,-1.58
2023-01-27T08:48:51.764Z,-1.64
2023-01-27T08:49:54.347Z,-1.60
2023-01-27T08:50:56.271Z,-1.55
2023-01-27T08:51:58.028Z,-1.57
2023-01-27T08:53:00.712Z,-1.49
2023-01-27T08:54:02.149Z,-1.49
2023-01-27T08:55:04.051Z,-1.30
2023-01-27T08:56:08.166Z,-1.48
2023-01-27T08:57:09.683Z,-1.43
2023-01-27T08:58:11.230Z,-1.37
2023-01-27T08:59:12.759Z,-1.37
2023-01-27T09:00:14.967Z,-1.38
2023-01-27T09:01:16.800Z,-1.46
2023-01-27T09:02:18.420Z,-1.48
2023-01-27T09:03:19.977Z,-1.51
2023-01-27T09:04:22.672Z,-1.49
2023-01-27T09:05:24.360Z,-1.49
2023-01-27T09:06:25.959Z,-1.39
2023-01-27T09:07:27.591Z,-1.39
2023-01-27T09:08:29.462Z,-1.43
2023-01-27T09:09:31.051Z,-1.42
2023-01-27T09:10:33.183Z,-1.35
2023-01-27T09:11:39.819Z,-1.32
2023-01-27T09:12:41.899Z,-1.34
2023-01-27T09:13:43.597Z,-1.25
2023-01-27T09:14:50.953Z,-1.31
2023-01-27T09:15:53.090Z,-1.33
2023-01-27T09:16:54.628Z,-1.28
2023-01-27T09:17:56.134Z,-1.13
2023-01-27T09:18:58.164Z,-1.08
2023-01-27T09:19:59.746Z,-1.28
2023-01-27T09:21:05.626Z,-1.24
2023-01-27T09:22:07.369Z,-1.22
2023-01-27T09:23:08.981Z,-1.21
2023-01-27T09:24:11.282Z,-1.29
2023-01-27T09:25:17.328Z,-1.20
2023-01-27T09:26:18.964Z,-1.20
2023-01-27T09:27:37.077Z,-1.19
2023-01-27T09:28:40.257Z,-1.21
2023-01-27T09:29:41.841Z,-1.00
2023-01-27T09:30:46.771Z,-1.05
2023-01-27T09:31:48.539Z,-0.93
2023-01-27T09:32:50.326Z,-0.96
2023-01-27T09:33:51.951Z,-1.15
2023-01-27T09:34:53.585Z,-1.03
2023-01-27T09:35:59.222Z,-1.10
2023-01-27T09:37:10.236Z,-1.18
2023-01-27T09:38:14.314Z,-1.19
2023-01-27T09:39:16.611Z,-1.27
2023-01-27T09:40:47.459Z,-1.26
2023-01-27T09:42:02.410Z,-1.22
2023-01-27T09:43:10.637Z,-1.11
2023-01-27T09:44:30.351Z,-1.15
2023-01-27T09:45:34.646Z,-1.27
2023-01-27T09:46:54.970Z,-1.14
2023-01-27T09:48:30.429Z,-1.03
2023-01-27T09:49:48.535Z,-0.96
2023-01-27T09:51:04.125Z,-1.16
2023-01-27T09:52:47.208Z,-1.11
2023-01-27T09:53:54.597Z,-1.05
2023-01-27T09:55:11.792Z,-1.11
2023-01-27T09:56:20.452Z,-1.21
2023-01-27T09:57:51.684Z,-1.21
2023-01-27T09:59:00.972Z,-1.31
2023-01-27T10:00:14.670Z,-1.32
2023-01-27T10:01:43.217Z,-1.31
2023-01-27T10:03:00.709Z,-1.32
2023-01-27T10:04:17.708Z,-1.25
2023-01-27T10:05:24.934Z,-1.45
2023-01-27T10:06:48.294Z,-1.46
2023-01-27T10:08:11.906Z,-1.38
2023-01-27T10:09:13.483Z,-1.41
2023-01-27T10:10:43.820Z,-1.51
2023-01-27T10:12:01.026Z,-1.37
2023-01-27T10:13:25.671Z,-1.35
2023-01-27T10:14:27.172Z,-1.31
2023-01-27T10:15:32.797Z,-1.37
2023-01-27T10:16:37.212Z,-1.24
2023-01-27T10:17:52.391Z,-1.28
2023-01-27T10:19:09.123Z,-1.32
2023-01-27T10:20:30.993Z,-1.18
2023-01-27T10:21:38.289Z,-1.05
2023-01-27T10:23:03.764Z,-1.05
2023-01-27T10:24:14.757Z,-1.10
2023-01-27T10:25:22.304Z,-1.01
2023-01-27T10:26:32.044Z,-1.02
2023-01-27T10:27:37.189Z,-1.07
2023-01-27T10:28:41.939Z,-0.98
2023-01-27T10:29:57.500Z,-0.90
2023-01-27T10:31:01.332Z,-0.90
2023-01-27T10:32:09.872Z,-0.77
2023-01-27T10:33:18.128Z,-0.71
2023-01-27T10:34:35.293Z,-0.70
2023-01-27T10:35:46.017Z,-0.79
2023-01-27T10:36:59.868Z,-0.89
2023-01-27T10:38:01.413Z,-0.87
2023-01-27T10:39:21.247Z,-0.94
2023-01-27T10:40:40.804Z,-0.88
2023-01-27T10:42:06.227Z,-0.69
2023-01-27T10:43:37.834Z,-0.69
2023-01-27T10:45:01.953Z,-0.71
2023-01-27T10:46:08.726Z,-0.70
2023-01-27T10:47:10.310Z,-0.77
2023-01-27T10:48:28.005Z,-0.67
2023-01-27T10:49:38.507Z,-0.78
2023-01-27T10:50:46.295Z,-0.64
2023-01-27T10:51:56.737Z,-0.63
2023-01-27T10:53:13.651Z,-0.84
2023-01-27T10:54:24.162Z,-0.83
2023-01-27T10:56:00.331Z,-0.90
2023-01-27T10:57:22.177Z,-0.91
2023-01-27T10:59:02.819Z,-0.87
2023-01-27T11:00:57.492Z,-1.07
2023-01-27T11:01:51.714Z,-1.00
2023-01-27T11:03:28.456Z,-1.00
2023-01-27T11:04:37.091Z,-0.91
2023-01-27T11:05:49.445Z,-0.93
2023-01-27T11:06:51.900Z,-0.89
2023-01-27T11:07:57.894Z,-0.85
2023-01-27T11:09:08.113Z,-0.94
2023-01-27T11:10:17.437Z,-0.77
2023-01-27T11:11:40.267Z,-0.76
2023-01-27T11:12:44.976Z,-0.63
2023-01-27T11:13:46.689Z,-0.77
2023-01-27T11:14:51.532Z,-0.88
2023-01-27T11:15:53.715Z,-0.87
2023-01-27T11:17:31.742Z,-0.92
2023-01-27T11:18:36.344Z,-1.19
2023-01-27T11:19:56.018Z,-1.08
2023-01-27T11:21:00.244Z,-1.18
2023-01-27T11:22:08.226Z,-1.16
2023-01-27T11:23:10.322Z,-1.14
2023-01-27T11:24:21.632Z,-1.15
2023-01-27T11:25:47.201Z,-1.25
2023-01-27T11:26:54.136Z,-1.24
2023-01-27T11:28:14.575Z,-1.31
2023-01-27T11:29:40.812Z,-1.25
2023-01-27T11:30:51.261Z,-1.20
2023-01-27T11:32:10.740Z,-1.29
2023-01-27T11:33:30.524Z,-1.26
2023-01-27T11:34:58.169Z,-1.28
2023-01-27T11:35:59.767Z,-1.31
2023-01-27T11:37:15.053Z,-1.34
2023-01-27T11:38:20.862Z,-1.32
2023-01-27T11:39:22.649Z,-1.30
2023-01-27T11:40:29.013Z,-1.37
2023-01-27T11:41:34.275Z,-1.27
2023-01-27T11:42:36.158Z,-1.36
2023-01-27T11:43:38.480Z,-1.34
2023-01-27T11:44:41.014Z,-1.34
2023-01-27T11:45:44.843Z,-1.35
2023-01-27T11:46:47.468Z,-1.24
2023-01-27T11:47:52.754Z,-1.16
2023-01-27T11:48:57.243Z,-0.92
2023-01-27T11:50:00.624Z,-1.01
2023-01-27T11:51:03.850Z,-0.95
2023-01-27T11:52:19.600Z,-0.93
2023-01-27T11:53:30.229Z,-0.92
2023-01-27T11:55:16.744Z,-1.16
2023-01-27T11:56:19.771Z,-1.01
2023-01-27T11:57:23.813Z,-1.30
2023-01-27T11:58:30.088Z,-1.29
2023-01-27T11:59:38.641Z,-1.33
2023-01-27T12:00:47.021Z,-1.22
2023-01-27T12:01:51.906Z,-1.14
2023-01-27T12:03:19.564Z,-1.27
2023-01-27T12:04:39.324Z,-1.24
2023-01-27T12:05:48.989Z,-1.25
2023-01-27T12:07:23.428Z,-1.36
2023-01-27T12:08:44.889Z,-1.37
2023-01-27T12:09:46.589Z,-1.27
2023-01-27T12:10:48.210Z,-1.33
2023-01-27T12:12:08.564Z,-1.30
2023-01-27T12:13:20.944Z,-1.24
2023-01-27T12:14:23.572Z,-1.27
2023-01-27T12:15:27.967Z,-1.19
2023-01-27T12:16:50.661Z,-1.25
2023-01-27T12:18:09.252Z,-1.30
2023-01-27T12:19:27.176Z,-1.41
2023-01-27T12:20:31.736Z,-1.39
2023-01-27T12:21:36.141Z,-1.43
2023-01-27T12:22:39.208Z,-1.37
2023-01-27T12:23:48.146Z,-1.36
2023-01-27T12:24:53.821Z,-1.49
2023-01-27T12:26:00.598Z,-1.36
2023-01-27T12:27:04.432Z,-1.23
2023-01-27T12:28:06.199Z,-1.34
2023-01-27T12:29:16.697Z,-1.35
2023-01-27T12:30:22.131Z,-1.27
2023-01-27T12:31:27.488Z,-1.22
2023-01-27T12:32:40.525Z,-1.16
2023-01-27T12:33:46.493Z,-1.10
2023-01-27T12:34:56.399Z,-1.00
2023-01-27T12:36:24.321Z,-1.05
2023-01-27T12:37:36.615Z,-1.08
2023-01-27T12:38:51.945Z,-1.06
2023-01-27T12:40:00.540Z,-1.18
2023-01-27T12:41:05.659Z,-1.20
2023-01-27T12:42:34.567Z,-1.10
2023-01-27T12:44:00.305Z,-1.06
2023-01-27T12:45:21.943Z,-1.01
2023-01-27T12:46:28.281Z,-0.98
2023-01-27T12:47:31.387Z,-0.84
2023-01-27T12:48:36.548Z,-0.81
2023-01-27T12:49:40.423Z,-0.90
2023-01-27T12:50:51.182Z,-0.92
2023-01-27T12:51:56.211Z,-0.87
2023-01-27T12:53:13.541Z,-0.93
2023-01-27T12:54:27.464Z,-0.90
2023-01-27T12:55:34.513Z,-0.95
2023-01-27T12:56:37.069Z,-1.09
2023-01-27T12:57:43.505Z,-1.06
2023-01-27T12:58:46.585Z,-1.14
2023-01-27T12:59:50.741Z,-1.17
2023-01-27T13:00:52.428Z,-1.19
2023-01-27T13:02:24.395Z,-1.16
2023-01-27T13:03:26.637Z,-1.06
2023-01-27T13:04:28.929Z,-0.97
2023-01-27T13:05:36.236Z,-1.01
2023-01-27T13:06:43.541Z,-1.07
2023-01-27T13:07:47.990Z,-1.13
2023-01-27T13:08:51.470Z,-1.19
2023-01-27T13:10:05.043Z,-1.25
2023-01-27T13:11:07.114Z,-1.21
2023-01-27T13:12:24.025Z,-1.20
2023-01-27T13:13:27.833Z,-1.26
2023-01-27T13:14:31.072Z,-1.27
2023-01-27T13:15:32.771Z,-1.24
2023-01-27T13:16:34.531Z,-1.18
2023-01-27T13:17:48.158Z,-1.05
2023-01-27T13:18:55.405Z,-1.10
2023-01-27T13:20:04.638Z,-1.13
2023-01-27T13:21:19.053Z,-1.06
2023-01-27T13:22:21.733Z,-1.05
2023-01-27T13:23:23.791Z,-0.98
2023-01-27T13:24:35.095Z,-0.87
2023-01-27T13:25:39.196Z,-0.95
2023-01-27T13:26:41.173Z,-0.81
2023-01-27T13:27:42.782Z,-0.81
2023-01-27T13:28:52.354Z,-0.82
2023-01-27T13:30:01.202Z,-0.72
2023-01-27T13:31:08.209Z,-0.80
2023-01-27T13:32:18.512Z,-0.87
2023-01-27T13:33:30.818Z,-0.90
2023-01-27T13:34:53.028Z,-0.79
2023-01-27T13:36:01.712Z,-0.82
2023-01-27T13:37:21.520Z,-0.70
2023-01-27T13:38:26.211Z,-0.84
2023-01-27T13:39:46.465Z,-0.80
2023-01-27T13:40:48.574Z,-0.85
2023-01-27T13:41:56.229Z,-0.79
2023-01-27T13:43:16.598Z,-0.79
2023-01-27T13:44:32.608Z,-0.88
2023-01-27T13:45:46.040Z,-0.78
2023-01-27T13:46:48.867Z,-0.89
2023-01-27T13:47:57.426Z,-0.72
2023-01-27T13:49:23.164Z,-0.77
2023-01-27T13:50:52.895Z,-0.86
2023-01-27T13:51:54.484Z,-0.89
2023-01-27T13:52:58.279Z,-0.85
2023-01-27T13:54:02.582Z,-0.84
2023-01-27T13:55:04.899Z,-0.95
2023-01-27T13:56:20.845Z,-0.86
2023-01-27T13:57:25.390Z,-0.74
2023-01-27T13:58:58.082Z,-0.82
2023-01-27T14:00:07.854Z,-0.91
2023-01-27T14:01:24.187Z,-0.99
2023-01-27T14:02:46.938Z,-0.95
2023-01-27T14:04:08.219Z,-1.01
2023-01-27T14:05:25.521Z,-1.10
2023-01-27T14:06:36.964Z,-1.08
2023-01-27T14:07:51.377Z,-1.05
2023-01-27T14:08:59.065Z,-1.08
2023-01-27T14:10:19.151Z,-1.07
2023-01-27T14:11:39.129Z,-1.02
2023-01-27T14:13:03.701Z,-1.04
2023-01-27T14:14:28.399Z,-0.99
2023-01-27T14:16:02.485Z,-0.98